createdAt,value
2022-12-31T00:00:39.709Z,10.60
2022-12-31T00:03:09.420Z,10.60
2022-12-31T00:05:37.723Z,10.60
2022-12-31T00:08:05.132Z,10.60
2022-12-31T00:10:34.441Z,10.60
2022-12-31T00:13:01.928Z,10.70
2022-12-31T00:15:29.241Z,10.60
2022-12-31T00:17:56.558Z,10.60
2022-12-31T00:20:24.020Z,10.70
2022-12-31T00:22:51.245Z,10.70
2022-12-31T00:25:18.843Z,10.70
2022-12-31T00:27:46.164Z,10.70
2022-12-31T00:30:14.242Z,10.70
2022-12-31T00:32:41.611Z,10.80
2022-12-31T00:35:09.365Z,10.80
2022-12-31T00:37:36.750Z,10.80
2022-12-31T00:40:05.146Z,10.80
2022-12-31T00:42:32.510Z,10.80
2022-12-31T00:44:59.754Z,10.80
2022-12-31T00:47:27.314Z,10.80
2022-12-31T00:49:54.590Z,10.90
2022-12-31T00:52:21.855Z,10.80
2022-12-31T00:54:48.993Z,10.90
2022-12-31T00:57:17.659Z,10.90
2022-12-31T00:59:44.952Z,10.90
2022-12-31T01:02:12.225Z,10.90
2022-12-31T01:04:39.639Z,11.00
2022-12-31T01:07:06.639Z,11.00
2022-12-31T01:09:33.873Z,11.00
2022-12-31T01:12:01.086Z,11.00
2022-12-31T01:14:28.362Z,11.00
2022-12-31T01:16:55.869Z,11.00
2022-12-31T01:19:28.569Z,11.00
2022-12-31T01:21:56.782Z,11.00
2022-12-31T01:24:24.316Z,11.00
2022-12-31T01:26:52.088Z,11.00
2022-12-31T01:29:19.246Z,11.00
2022-12-31T01:31:46.610Z,11.00
2022-12-31T01:34:13.993Z,11.00
2022-12-31T01:36:41.557Z,11.00
2022-12-31T01:39:10.049Z,11.00
2022-12-31T01:41:43.139Z,11.10
2022-12-31T01:44:13.060Z,11.10
2022-12-31T01:46:47.549Z,11.10
2022-12-31T01:49:24.103Z,11.10
2022-12-31T01:52:16.522Z,11.20
2022-12-31T01:54:50.415Z,11.20
2022-12-31T01:57:18.255Z,11.30
2022-12-31T01:59:46.468Z,11.30
2022-12-31T02:02:15.148Z,11.30
2022-12-31T02:04:42.716Z,11.30
2022-12-31T02:07:11.744Z,11.30
2022-12-31T02:09:41.299Z,11.40
2022-12-31T02:12:14.083Z,11.40
2022-12-31T02:14:53.082Z,11.40
2022-12-31T02:17:36.177Z,11.40
2022-12-31T02:20:37.177Z,11.50
2022-12-31T02:23:45.098Z,11.50
2022-12-31T02:26:58.038Z,11.50
2022-12-31T02:29:54.000Z,11.50
2022-12-31T02:32:39.158Z,11.50
2022-12-31T02:35:17.226Z,11.50
2022-12-31T02:37:48.635Z,11.50
2022-12-31T02:40:19.233Z,11.50
2022-12-31T02:42:53.306Z,11.50
2022-12-31T02:45:31.161Z,11.50
2022-12-31T02:48:06.710Z,11.50
2022-12-31T02:50:55.810Z,11.60
2022-12-31T02:53:41.549Z,11.50
2022-12-31T02:56:43.920Z,11.50
2022-12-31T02:59:50.728Z,11.50
2022-12-31T03:02:21.890Z,11.50
2022-12-31T03:04:54.996Z,11.50
2022-12-31T03:07:27.445Z,11.50
2022-12-31T03:09:55.422Z,11.50
2022-12-31T03:12:44.992Z,11.40
2022-12-31T03:15:21.187Z,11.40
2022-12-31T03:18:15.739Z,11.40
2022-12-31T03:21:07.979Z,11.40
2022-12-31T03:23:41.271Z,11.40
2022-12-31T03:26:11.725Z,11.40
2022-12-31T03:28:41.378Z,11.40
2022-12-31T03:31:09.101Z,11.40
2022-12-31T03:33:39.787Z,11.40
2022-12-31T03:36:13.118Z,11.40
2022-12-31T03:38:41.266Z,11.40
2022-12-31T03:41:11.223Z,11.40
2022-12-31T03:43:38.775Z,11.40
2022-12-31T03:46:06.150Z,11.40
2022-12-31T03:48:33.490Z,11.30
2022-12-31T03:51:00.841Z,11.30
2022-12-31T03:53:28.050Z,11.30
2022-12-31T03:55:57.693Z,11.30
2022-12-31T03:58:24.906Z,11.30
2022-12-31T04:00:52.186Z,11.30
2022-12-31T04:03:19.632Z,11.30
2022-12-31T04:05:53.735Z,11.30
2022-12-31T04:08:21.040Z,11.30
2022-12-31T04:10:48.719Z,11.30
2022-12-31T04:13:16.183Z,11.30
2022-12-31T04:15:43.387Z,11.30
2022-12-31T04:18:10.590Z,11.30
2022-12-31T04:20:37.914Z,11.30
2022-12-31T04:23:05.376Z,11.30
2022-12-31T04:25:32.752Z,11.30
2022-12-31T04:27:59.926Z,11.30
2022-12-31T04:30:27.340Z,11.30
2022-12-31T04:32:54.406Z,11.30
2022-12-31T04:35:21.707Z,11.30
2022-12-31T04:37:48.963Z,11.30
2022-12-31T04:40:16.560Z,11.30
2022-12-31T04:42:43.875Z,11.30
2022-12-31T04:45:11.375Z,11.30
2022-12-31T04:47:38.631Z,11.30
2022-12-31T04:50:06.463Z,11.40
2022-12-31T04:52:38.596Z,11.40
2022-12-31T04:55:09.538Z,11.40
2022-12-31T04:57:36.766Z,11.40
2022-12-31T05:00:04.375Z,11.40
2022-12-31T05:02:32.514Z,11.40
2022-12-31T05:05:00.113Z,11.50
2022-12-31T05:07:27.205Z,11.50
2022-12-31T05:09:57.527Z,11.50
2022-12-31T05:12:25.078Z,11.50
2022-12-31T05:14:52.328Z,11.60
2022-12-31T05:17:21.180Z,11.60
2022-12-31T05:19:48.294Z,11.60
2022-12-31T05:22:30.754Z,11.60
2022-12-31T05:24:59.804Z,11.60
2022-12-31T05:27:29.010Z,11.60
2022-12-31T05:29:56.239Z,11.60
2022-12-31T05:32:23.484Z,11.60
2022-12-31T05:34:50.768Z,11.60
2022-12-31T05:37:17.890Z,11.60
2022-12-31T05:39:45.072Z,11.60
2022-12-31T05:42:12.136Z,11.60
2022-12-31T05:44:39.290Z,11.60
2022-12-31T05:47:06.482Z,11.60
2022-12-31T05:49:33.707Z,11.60
2022-12-31T05:52:01.018Z,11.60
2022-12-31T05:54:28.412Z,11.60
2022-12-31T05:56:55.589Z,11.60
2022-12-31T05:59:22.884Z,11.60
2022-12-31T06:01:50.066Z,11.60
2022-12-31T06:04:17.620Z,11.60
2022-12-31T06:06:44.980Z,11.60
2022-12-31T06:09:13.195Z,11.60
2022-12-31T06:11:40.261Z,11.60
2022-12-31T06:14:07.512Z,11.60
2022-12-31T06:16:34.557Z,11.60
2022-12-31T06:19:02.656Z,11.50
2022-12-31T06:21:30.071Z,11.50
2022-12-31T06:23:57.553Z,11.50
2022-12-31T06:26:25.435Z,11.50
2022-12-31T06:28:52.993Z,11.50
2022-12-31T06:31:20.375Z,11.50
2022-12-31T06:33:47.850Z,11.50
2022-12-31T06:36:16.549Z,11.50
2022-12-31T06:38:44.898Z,11.40
2022-12-31T06:41:14.457Z,11.50
2022-12-31T06:43:45.732Z,11.40
2022-12-31T06:46:15.655Z,11.40
2022-12-31T06:48:45.081Z,11.40
2022-12-31T06:51:17.581Z,11.40
2022-12-31T06:53:46.518Z,11.40
2022-12-31T06:56:19.654Z,11.40
2022-12-31T06:58:47.759Z,11.40
2022-12-31T07:01:47.495Z,11.40
2022-12-31T07:04:51.120Z,11.40
2022-12-31T07:07:46.701Z,11.30
2022-12-31T07:10:30.084Z,11.30
2022-12-31T07:13:34.625Z,11.30
2022-12-31T07:16:32.711Z,11.30
2022-12-31T07:19:11.614Z,11.30
2022-12-31T07:21:41.475Z,11.30
2022-12-31T07:24:10.478Z,11.30
2022-12-31T07:27:02.610Z,11.30
2022-12-31T07:30:04.889Z,11.30
2022-12-31T07:32:44.619Z,11.30
2022-12-31T07:35:17.317Z,11.30
2022-12-31T07:38:03.546Z,11.30
2022-12-31T07:40:48.521Z,11.30
2022-12-31T07:43:36.156Z,11.30
2022-12-31T07:46:22.606Z,11.30
2022-12-31T07:48:50.252Z,11.30
2022-12-31T07:51:17.765Z,11.30
2022-12-31T07:53:45.077Z,11.30
2022-12-31T07:56:13.504Z,11.20
2022-12-31T07:58:43.182Z,11.20
2022-12-31T08:01:12.990Z,11.20
2022-12-31T08:04:21.042Z,11.20
2022-12-31T08:07:27.278Z,11.20
2022-12-31T08:10:05.936Z,11.20
2022-12-31T08:12:36.232Z,11.30
2022-12-31T08:15:04.085Z,11.20
2022-12-31T08:17:31.424Z,11.20
2022-12-31T08:19:58.853Z,11.20
2022-12-31T08:22:59.243Z,11.20
2022-12-31T08:26:07.055Z,11.20
2022-12-31T08:29:03.911Z,11.20
2022-12-31T08:31:47.992Z,11.20
2022-12-31T08:34:23.754Z,11.20
2022-12-31T08:37:28.801Z,11.20
2022-12-31T08:40:10.760Z,11.20
2022-12-31T08:42:51.846Z,11.30
2022-12-31T08:45:40.167Z,11.20
2022-12-31T08:48:20.327Z,11.30
2022-12-31T08:50:47.962Z,11.30
2022-12-31T08:53:15.443Z,11.30
2022-12-31T08:55:44.649Z,11.30
2022-12-31T08:58:45.866Z,11.30
2022-12-31T09:01:19.217Z,11.30
2022-12-31T09:03:52.660Z,11.40
2022-12-31T09:06:46.858Z,11.40
2022-12-31T09:09:14.171Z,11.40
2022-12-31T09:12:03.130Z,11.40
2022-12-31T09:14:41.994Z,11.40
2022-12-31T09:17:37.446Z,11.40
2022-12-31T09:20:06.240Z,11.50
2022-12-31T09:22:33.674Z,11.50
2022-12-31T09:25:01.078Z,11.50
2022-12-31T09:27:28.374Z,11.50
2022-12-31T09:29:55.537Z,11.50
2022-12-31T09:32:37.884Z,11.50
2022-12-31T09:35:13.436Z,11.50
2022-12-31T09:38:00.364Z,11.50
2022-12-31T09:40:41.312Z,11.50
2022-12-31T09:43:19.478Z,11.50
2022-12-31T09:46:29.109Z,11.50
2022-12-31T09:49:22.636Z,11.50
2022-12-31T09:52:13.473Z,11.50
2022-12-31T09:54:46.740Z,11.50
2022-12-31T09:57:52.238Z,11.50
2022-12-31T10:00:36.204Z,11.60
2022-12-31T10:03:06.584Z,11.60
2022-12-31T10:05:44.919Z,11.60
2022-12-31T10:08:21.158Z,11.60
2022-12-31T10:11:00.140Z,11.60
2022-12-31T10:13:42.299Z,11.60
2022-12-31T10:16:48.232Z,11.60
2022-12-31T10:19:45.680Z,11.60
2022-12-31T10:22:43.051Z,11.60
2022-12-31T10:25:41.319Z,11.60
2022-12-31T10:28:41.102Z,11.60
2022-12-31T10:31:33.841Z,11.70
2022-12-31T10:34:34.050Z,11.70
2022-12-31T10:37:16.554Z,11.70
2022-12-31T10:40:18.065Z,11.70
2022-12-31T10:43:00.649Z,11.70
2022-12-31T10:46:01.933Z,11.70
2022-12-31T10:49:10.957Z,11.80
2022-12-31T10:51:49.831Z,11.80
2022-12-31T10:54:57.438Z,11.80
2022-12-31T10:57:24.417Z,11.80
2022-12-31T11:00:02.569Z,11.90
2022-12-31T11:02:35.787Z,11.90
2022-12-31T11:05:25.920Z,12.00
2022-12-31T11:08:31.969Z,12.00
2022-12-31T11:11:17.838Z,12.00
2022-12-31T11:14:02.946Z,12.10
2022-12-31T11:17:01.185Z,12.10
2022-12-31T11:20:05.188Z,12.10
2022-12-31T11:22:54.485Z,12.20
2022-12-31T11:25:43.987Z,12.20
2022-12-31T11:28:34.497Z,12.20
2022-12-31T11:31:10.091Z,12.20
2022-12-31T11:34:03.048Z,12.30
2022-12-31T11:36:37.919Z,12.30
2022-12-31T11:39:43.784Z,12.40
2022-12-31T11:43:00.525Z,12.40
2022-12-31T11:45:56.015Z,12.50
2022-12-31T11:48:49.367Z,12.50
2022-12-31T11:51:34.813Z,12.60
2022-12-31T11:54:13.991Z,12.60
2022-12-31T11:56:54.136Z,12.60
2022-12-31T11:59:22.288Z,12.70
2022-12-31T12:02:04.797Z,12.70
2022-12-31T12:04:32.468Z,12.80
2022-12-31T12:06:59.947Z,12.90
2022-12-31T12:09:32.664Z,12.80
2022-12-31T12:12:03.368Z,12.90
2022-12-31T12:14:42.618Z,13.00
2022-12-31T12:17:22.572Z,13.00
2022-12-31T12:19:55.447Z,13.10
2022-12-31T12:22:25.618Z,13.10
2022-12-31T12:25:05.658Z,13.10
2022-12-31T12:27:35.900Z,13.20
2022-12-31T12:30:20.957Z,13.20
2022-12-31T12:33:19.532Z,13.30
2022-12-31T12:35:47.811Z,13.30
2022-12-31T12:38:18.854Z,13.30
2022-12-31T12:41:01.446Z,13.30
2022-12-31T12:43:46.752Z,13.30
2022-12-31T12:46:50.239Z,13.40
2022-12-31T12:49:26.081Z,13.40
2022-12-31T12:52:30.452Z,13.40
2022-12-31T12:55:37.272Z,13.50
2022-12-31T12:58:40.443Z,13.50
2022-12-31T13:01:41.243Z,13.50
2022-12-31T13:04:46.247Z,13.50
2022-12-31T13:07:26.746Z,13.60
2022-12-31T13:10:42.619Z,13.50
2022-12-31T13:13:37.606Z,13.50
2022-12-31T13:16:27.435Z,13.50
2022-12-31T13:19:42.084Z,13.50
2022-12-31T13:22:19.876Z,13.50
2022-12-31T13:25:02.126Z,13.50
2022-12-31T13:27:42.792Z,13.50
2022-12-31T13:30:19.767Z,13.50
2022-12-31T13:33:06.099Z,13.60
2022-12-31T13:35:56.820Z,13.60
2022-12-31T13:38:43.865Z,13.60
2022-12-31T13:41:25.466Z,13.60
2022-12-31T13:44:34.408Z,13.60
2022-12-31T13:47:14.885Z,13.60
2022-12-31T13:49:54.948Z,13.60
2022-12-31T13:52:33.112Z,13.60
2022-12-31T13:55:16.426Z,13.70
2022-12-31T13:57:48.471Z,13.70
2022-12-31T14:00:25.263Z,13.70
2022-12-31T14:03:14.004Z,13.70
2022-12-31T14:05:52.332Z,13.70
2022-12-31T14:08:19.658Z,13.70
2022-12-31T14:11:22.111Z,13.70
2022-12-31T14:14:01.731Z,13.70
2022-12-31T14:16:58.323Z,13.70
2022-12-31T14:19:41.131Z,13.70
2022-12-31T14:22:47.843Z,13.70
2022-12-31T14:25:41.953Z,13.70
2022-12-31T14:28:24.172Z,13.70
2022-12-31T14:30:57.092Z,13.70
2022-12-31T14:33:40.436Z,13.70
2022-12-31T14:36:33.647Z,13.70
2022-12-31T14:39:48.649Z,13.70
2022-12-31T14:42:56.099Z,13.70
2022-12-31T14:45:38.883Z,13.70
2022-12-31T14:48:29.415Z,13.70
2022-12-31T14:51:01.297Z,13.70
2022-12-31T14:53:29.794Z,13.80
2022-12-31T14:56:02.931Z,13.80
2022-12-31T14:58:36.281Z,13.70
2022-12-31T15:01:20.227Z,13.80
2022-12-31T15:03:47.638Z,13.80
2022-12-31T15:06:23.750Z,13.80
2022-12-31T15:09:08.170Z,13.80
2022-12-31T15:11:52.186Z,13.80
2022-12-31T15:14:30.949Z,13.80
2022-12-31T15:17:33.970Z,13.90
2022-12-31T15:20:24.742Z,13.90
2022-12-31T15:22:53.515Z,13.90
2022-12-31T15:25:40.565Z,13.90
2022-12-31T15:28:41.960Z,13.90
2022-12-31T15:31:19.699Z,13.90
2022-12-31T15:34:06.694Z,13.90
2022-12-31T15:36:38.936Z,13.90
2022-12-31T15:39:12.393Z,13.90
2022-12-31T15:42:10.375Z,13.90
2022-12-31T15:45:01.003Z,13.90
2022-12-31T15:47:55.170Z,14.00
2022-12-31T15:50:23.891Z,14.00
2022-12-31T15:53:00.728Z,14.00
2022-12-31T15:55:38.675Z,13.90
2022-12-31T15:58:12.458Z,13.90
2022-12-31T16:00:52.591Z,13.90
2022-12-31T16:03:27.290Z,13.90
2022-12-31T16:06:02.007Z,13.90
2022-12-31T16:08:34.952Z,13.90
2022-12-31T16:11:06.021Z,13.90
2022-12-31T16:13:37.134Z,13.90
2022-12-31T16:16:07.807Z,13.80
2022-12-31T16:18:43.261Z,13.80
2022-12-31T16:21:29.086Z,13.80
2022-12-31T16:24:21.863Z,13.70
2022-12-31T16:26:51.986Z,13.70
2022-12-31T16:29:21.813Z,13.60
2022-12-31T16:31:54.064Z,13.60
2022-12-31T16:34:25.196Z,13.60
2022-12-31T16:37:05.807Z,13.60
2022-12-31T16:39:38.243Z,13.60
2022-12-31T16:42:14.937Z,13.50
2022-12-31T16:44:42.103Z,13.60
2022-12-31T16:47:14.401Z,13.50
2022-12-31T16:49:42.987Z,13.50
2022-12-31T16:52:43.985Z,13.50
2022-12-31T16:55:18.476Z,13.50
2022-12-31T16:57:54.367Z,13.40
2022-12-31T17:00:24.228Z,13.40
2022-12-31T17:03:16.787Z,13.50
2022-12-31T17:06:06.100Z,13.50
2022-12-31T17:09:10.240Z,13.50
2022-12-31T17:11:48.473Z,13.50
2022-12-31T17:14:17.297Z,13.50
2022-12-31T17:17:07.044Z,13.50
2022-12-31T17:19:43.535Z,13.50
2022-12-31T17:22:36.397Z,13.50
2022-12-31T17:25:29.281Z,13.50
2022-12-31T17:28:07.986Z,13.50
2022-12-31T17:30:42.301Z,13.50
2022-12-31T17:33:09.776Z,13.50
2022-12-31T17:35:42.568Z,13.50
2022-12-31T17:38:30.686Z,13.50
2022-12-31T17:41:06.260Z,13.50
2022-12-31T17:43:35.973Z,13.50
2022-12-31T17:46:09.424Z,13.50
2022-12-31T17:48:37.417Z,13.50
2022-12-31T17:51:04.837Z,13.60
2022-12-31T17:53:32.179Z,13.60
2022-12-31T17:56:03.742Z,13.70
2022-12-31T17:58:32.861Z,13.70
2022-12-31T18:01:02.690Z,13.70
2022-12-31T18:03:30.007Z,13.80
2022-12-31T18:05:57.476Z,13.80
2022-12-31T18:08:24.902Z,13.90
2022-12-31T18:10:53.873Z,13.90
2022-12-31T18:13:26.602Z,13.90
2022-12-31T18:15:54.529Z,13.90
2022-12-31T18:18:32.871Z,14.00
2022-12-31T18:21:03.664Z,14.00
2022-12-31T18:23:43.611Z,14.00
2022-12-31T18:26:17.327Z,14.00
2022-12-31T18:28:44.545Z,14.00
2022-12-31T18:31:22.228Z,14.00
2022-12-31T18:33:50.159Z,14.00
2022-12-31T18:36:19.646Z,14.00
2022-12-31T18:38:47.150Z,14.00
2022-12-31T18:41:28.021Z,14.00
2022-12-31T18:43:55.721Z,14.10
2022-12-31T18:46:24.652Z,14.10
2022-12-31T18:48:52.180Z,14.10
2022-12-31T18:51:31.420Z,14.10
2022-12-31T18:54:00.217Z,14.10
2022-12-31T18:56:27.924Z,14.10
2022-12-31T18:58:59.993Z,14.10
2022-12-31T19:01:35.668Z,14.10
2022-12-31T19:04:26.980Z,14.10
2022-12-31T19:06:56.136Z,14.10
2022-12-31T19:12:14.425Z,14.10
2022-12-31T19:14:41.920Z,14.20
2022-12-31T19:19:35.144Z,14.10
2022-12-31T19:22:03.183Z,14.20
2022-12-31T19:24:30.603Z,14.20
2022-12-31T19:26:57.845Z,14.20
2022-12-31T19:29:27.138Z,14.20
2022-12-31T19:31:54.717Z,14.20
2022-12-31T19:34:22.126Z,14.10
2022-12-31T19:36:49.201Z,14.10
2022-12-31T19:39:19.721Z,14.10
2022-12-31T19:41:56.553Z,14.10
2022-12-31T19:44:26.186Z,14.20
2022-12-31T19:46:53.491Z,14.20
2022-12-31T19:49:20.851Z,14.20
2022-12-31T19:51:47.996Z,14.20
2022-12-31T19:54:15.251Z,14.20
2022-12-31T19:56:42.500Z,14.20
2022-12-31T19:59:11.060Z,14.20
2022-12-31T20:01:42.289Z,14.20
2022-12-31T20:04:09.517Z,14.20
2022-12-31T20:06:36.864Z,14.20
2022-12-31T20:09:04.420Z,14.20
2022-12-31T20:11:34.605Z,14.20
2022-12-31T20:14:02.770Z,14.20
2022-12-31T20:16:31.958Z,14.30
2022-12-31T20:18:59.505Z,14.30
2022-12-31T20:21:28.573Z,14.30
2022-12-31T20:23:56.448Z,14.30
2022-12-31T20:26:25.884Z,14.30
2022-12-31T20:28:53.804Z,14.30
2022-12-31T20:31:25.766Z,14.30
2022-12-31T20:33:54.502Z,14.30
2022-12-31T20:36:22.285Z,14.30
2022-12-31T20:38:49.571Z,14.30
2022-12-31T20:41:19.147Z,14.30
2022-12-31T20:43:48.180Z,14.30
2022-12-31T20:46:20.689Z,14.20
2022-12-31T20:48:50.465Z,14.20
2022-12-31T20:51:19.078Z,14.20
2022-12-31T20:53:49.219Z,14.30
2022-12-31T20:56:18.826Z,14.20
2022-12-31T20:58:46.180Z,14.20
2022-12-31T21:01:14.493Z,14.20
2022-12-31T21:06:31.958Z,14.20
2022-12-31T21:09:00.871Z,14.20
2022-12-31T21:11:47.143Z,14.30
2022-12-31T21:14:14.480Z,14.20
2022-12-31T21:16:41.714Z,14.30
2022-12-31T21:19:10.250Z,14.30
2022-12-31T21:21:37.778Z,14.20
2022-12-31T21:24:05.601Z,14.20
2022-12-31T21:26:33.115Z,14.20
2022-12-31T21:29:00.293Z,14.20
2022-12-31T21:31:28.721Z,14.20
2022-12-31T21:33:56.494Z,14.20
2022-12-31T21:36:23.771Z,14.20
2022-12-31T21:38:51.059Z,14.20
2022-12-31T21:41:36.847Z,14.30
2022-12-31T21:44:04.009Z,14.30
2022-12-31T21:46:34.059Z,14.20
2022-12-31T21:49:01.299Z,14.20
2022-12-31T21:51:30.115Z,14.20
2022-12-31T21:53:58.404Z,14.20
2022-12-31T21:56:25.677Z,14.20
2022-12-31T21:59:17.369Z,14.20
2022-12-31T22:02:03.153Z,14.20
2022-12-31T22:07:17.609Z,14.20
2022-12-31T22:09:44.738Z,14.20
2022-12-31T22:12:11.886Z,14.20
2022-12-31T22:14:39.983Z,14.10
2022-12-31T22:17:27.130Z,14.20
2022-12-31T22:20:17.572Z,14.20
2022-12-31T22:22:41.642Z,14.20
2022-12-31T22:25:09.286Z,14.20
2022-12-31T22:27:36.494Z,14.20
2022-12-31T22:30:07.404Z,14.20
2022-12-31T22:32:34.529Z,14.20
2022-12-31T22:35:01.654Z,14.20
2022-12-31T22:37:55.558Z,14.20
2022-12-31T22:40:16.743Z,14.20
2022-12-31T22:42:44.262Z,14.20
2022-12-31T22:45:11.743Z,14.20
2022-12-31T22:47:38.996Z,14.20
2022-12-31T22:50:06.891Z,14.30
2022-12-31T22:52:34.062Z,14.30
2022-12-31T22:55:01.239Z,14.30
2022-12-31T22:57:28.675Z,14.30
2022-12-31T22:59:55.865Z,14.30
2022-12-31T23:02:23.083Z,14.30
2022-12-31T23:04:50.165Z,14.30
2022-12-31T23:07:17.603Z,14.30
2022-12-31T23:10:03.264Z,14.30
2022-12-31T23:12:30.433Z,14.30
2022-12-31T23:15:16.085Z,14.30
2022-12-31T23:18:01.857Z,14.30
2022-12-31T23:20:47.295Z,14.30
2022-12-31T23:23:18.186Z,14.30
2022-12-31T23:25:48.736Z,14.40
2022-12-31T23:28:19.067Z,14.40
2022-12-31T23:30:46.649Z,14.40
2022-12-31T23:33:17.630Z,14.40
2022-12-31T23:35:45.488Z,14.40
2022-12-31T23:38:16.580Z,14.40
2022-12-31T23:40:46.871Z,14.40
2022-12-31T23:43:21.453Z,14.40
2022-12-31T23:45:50.812Z,14.50
2022-12-31T23:48:18.111Z,14.40
2022-12-31T23:50:50.821Z,14.40
2022-12-31T23:53:28.811Z,14.40
2022-12-31T23:55:56.032Z,14.40
2022-12-31T23:58:23.444Z,14.40
